Time;durP1;ratioP1;P1;durP2;ratioP2;P2;SDS_P1;SDS_P2;PMS_P1;PMS_P2;Temp;Humidity;BMP_temperature;BMP_pressure;BME280_temperature;BME280_humidity;BME280_pressure;Samples;Min_cycle;Max_cycle;Signal;HPM_P1;HPM_P2
2021/07/14 00:00:25;;;;;;;74.90;50.08;;;19.60;99.00;;;;;;4988784;28;20036;-82
2021/07/14 00:02:51;;;;;;;57.13;42.25;;;19.60;98.90;;;;;;4971576;28;20077;-80
2021/07/14 00:05:18;;;;;;;71.25;50.38;;;19.70;99.40;;;;;;4980293;28;20072;-80
2021/07/14 00:07:44;;;;;;;74.55;51.13;;;19.70;98.50;;;;;;4991711;28;20034;-82
2021/07/14 00:10:12;;;;;;;76.35;50.20;;;19.60;98.50;;;;;;5008886;28;20515;-81
2021/07/14 00:12:47;;;;;;;72.18;49.65;;;19.60;98.50;;;;;;4965702;28;20054;-80
2021/07/14 00:23:16;;;;;;;74.05;52.85;;;19.60;98.50;;;;;;4994234;28;20037;-81
2021/07/14 00:25:42;;;;;;;70.82;48.63;;;19.60;99.10;;;;;;4990310;28;20027;-80
2021/07/14 00:28:07;;;;;;;79.82;51.55;;;19.60;98.60;;;;;;4991251;28;20033;-80
2021/07/14 00:30:36;;;;;;;70.25;50.60;;;19.60;98.50;;;;;;4995931;28;20046;-80
2021/07/14 00:33:01;;;;;;;63.97;47.90;;;19.70;98.70;;;;;;4987760;28;20026;-80
2021/07/14 00:35:27;;;;;;;66.15;47.83;;;19.60;98.40;;;;;;4973170;28;20039;-80
2021/07/14 00:37:52;;;;;;;61.70;45.05;;;19.50;99.00;;;;;;4977058;28;20025;-81
2021/07/14 00:40:18;;;;;;;69.53;46.35;;;19.60;98.90;;;;;;4985540;28;20649;-80
2021/07/14 00:42:46;;;;;;;59.45;44.08;;;19.60;98.60;;;;;;4961212;28;20038;-80
2021/07/14 00:45:11;;;;;;;78.35;44.00;;;19.60;98.70;;;;;;5003497;28;20533;-79
2021/07/14 00:47:37;;;;;;;67.15;43.13;;;19.60;98.60;;;;;;4976255;28;20119;-80
2021/07/14 00:50:04;;;;;;;56.63;43.00;;;19.60;98.80;;;;;;4979717;28;20038;-79
2021/07/14 00:52:29;;;;;;;59.63;42.40;;;19.50;98.50;;;;;;5001455;28;21244;-79
2021/07/14 00:54:55;;;;;;;55.63;40.92;;;19.50;98.80;;;;;;4963221;28;20118;-80
2021/07/14 00:57:21;;;;;;;67.47;43.25;;;19.50;98.80;;;;;;4989052;28;20081;-80
2021/07/14 00:59:46;;;;;;;62.55;41.08;;;19.50;98.80;;;;;;4985497;28;20109;-80
2021/07/14 01:02:12;;;;;;;63.03;41.60;;;19.40;98.70;;;;;;4998142;28;20125;-81
2021/07/14 01:04:40;;;;;;;72.13;43.67;;;19.50;98.70;;;;;;5008410;28;20026;-79
2021/07/14 01:07:25;;;;;;;60.90;41.03;;;19.50;99.90;;;;;;4974647;28;20042;-79
2021/07/14 01:10:11;;;;;;;56.15;39.78;;;19.60;99.00;;;;;;4969078;28;20088;-79
2021/07/14 01:13:15;;;;;;;61.80;41.42;;;19.50;98.80;;;;;;4985417;28;20038;-80
2021/07/14 01:15:44;;;;;;;59.60;38.83;;;19.50;99.20;;;;;;5006231;28;20105;-80
2021/07/14 01:18:31;;;;;;;67.70;40.15;;;19.50;99.00;;;;;;4972064;28;20036;-80
2021/07/14 01:21:26;;;;;;;93.18;41.92;;;19.50;98.90;;;;;;4967779;28;20022;-79
2021/07/14 01:24:10;;;;;;;81.45;42.78;;;19.50;98.60;;;;;;5002952;28;20037;-79
2021/07/14 01:27:01;;;;;;;89.65;43.22;;;19.40;98.90;;;;;;5004357;28;20038;-79
2021/07/14 01:29:26;;;;;;;79.47;43.45;;;19.30;98.90;;;;;;5024737;28;20038;-80
2021/07/14 01:31:52;;;;;;;75.72;47.17;;;19.30;99.10;;;;;;4972292;28;20038;-79
2021/07/14 01:34:18;;;;;;;78.97;48.03;;;19.30;99.10;;;;;;4990101;28;20493;-79
2021/07/14 01:36:44;;;;;;;78.07;48.10;;;19.30;99.10;;;;;;4972445;28;20044;-79
2021/07/14 01:39:09;;;;;;;70.85;49.47;;;19.40;99.40;;;;;;4974874;28;20049;-79
2021/07/14 01:41:37;;;;;;;96.70;51.05;;;19.40;99.10;;;;;;4988105;28;20061;-80
2021/07/14 01:44:03;;;;;;;80.80;50.53;;;19.30;99.90;;;;;;4970563;28;20446;-79
2021/07/14 01:46:30;;;;;;;76.68;49.17;;;19.30;99.10;;;;;;4990063;28;20053;-80
2021/07/14 01:48:56;;;;;;;73.88;50.10;;;19.30;99.30;;;;;;4964529;28;20042;-79
2021/07/14 01:51:22;;;;;;;81.93;48.95;;;19.40;99.60;;;;;;4974294;28;20038;-79
2021/07/14 01:53:48;;;;;;;79.22;51.03;;;19.40;99.30;;;;;;4961338;28;20037;-79
2021/07/14 01:56:13;;;;;;;74.72;49.55;;;19.30;99.20;;;;;;4981334;28;20397;-79
2021/07/14 01:58:43;;;;;;;81.65;51.75;;;19.30;99.20;;;;;;4974562;28;20061;-80
2021/07/14 02:01:09;;;;;;;96.07;52.88;;;19.30;99.20;;;;;;4970558;28;20034;-79
2021/07/14 02:06:01;;;;;;;75.63;52.45;;;19.30;99.40;;;;;;5012835;28;20113;-81
2021/07/14 02:08:30;;;;;;;81.65;52.53;;;19.30;99.40;;;;;;4992852;28;20036;-80
2021/07/14 02:10:56;;;;;;;83.50;53.75;;;19.30;99.30;;;;;;4981632;28;20608;-80
2021/07/14 02:13:23;;;;;;;92.78;54.85;;;19.20;99.30;;;;;;4981419;28;20099;-81
2021/07/14 02:15:51;;;;;;;84.65;53.67;;;19.20;99.30;;;;;;4988774;28;20619;-79
2021/07/14 02:18:16;;;;;;;84.53;53.72;;;19.30;99.30;;;;;;4981015;28;20026;-79
2021/07/14 02:20:42;;;;;;;85.28;53.35;;;19.20;99.40;;;;;;4970974;28;20465;-80
2021/07/14 02:23:08;;;;;;;97.35;54.50;;;19.20;99.30;;;;;;4991403;28;20025;-82
2021/07/14 02:25:33;;;;;;;79.22;51.83;;;19.20;99.30;;;;;;4979163;28;20128;-82
2021/07/14 02:27:59;;;;;;;96.15;52.33;;;19.30;99.10;;;;;;4992106;28;20482;-82
2021/07/14 02:30:25;;;;;;;100.05;55.17;;;19.20;99.30;;;;;;5004390;28;20054;-83
2021/07/14 02:32:54;;;;;;;96.93;53.42;;;19.20;99.50;;;;;;4972965;28;20049;-82
2021/07/14 02:35:19;;;;;;;86.60;51.67;;;19.30;99.50;;;;;;4992604;28;20039;-82
2021/07/14 02:37:59;;;;;;;99.15;55.13;;;19.20;99.90;;;;;;4970640;28;20034;-82
2021/07/14 02:40:39;;;;;;;99.15;54.70;;;19.20;99.80;;;;;;4985799;28;20520;-82
2021/07/14 02:43:05;;;;;;;105.38;55.25;;;19.20;99.90;;;;;;4966712;28;20046;-82
2021/07/14 02:45:32;;;;;;;101.35;52.38;;;19.20;99.90;;;;;;4991121;28;20030;-82
2021/07/14 02:47:59;;;;;;;113.63;56.00;;;19.20;99.70;;;;;;4974149;28;20533;-82
2021/07/14 02:50:27;;;;;;;112.50;56.45;;;19.20;99.70;;;;;;4982883;28;20034;-82
2021/07/14 02:52:54;;;;;;;103.70;55.88;;;19.20;99.90;;;;;;4964601;28;20109;-82
2021/07/14 02:55:21;;;;;;;100.28;54.53;;;19.10;99.80;;;;;;4981572;28;20031;-82
2021/07/14 02:57:48;;;;;;;98.97;56.05;;;19.20;99.90;;;;;;4994332;28;20044;-82
2021/07/14 03:00:14;;;;;;;77.50;49.35;;;19.20;99.90;;;;;;4975936;28;20042;-82
2021/07/14 03:02:40;;;;;;;108.25;51.70;;;19.20;99.90;;;;;;5001513;28;20025;-83
2021/07/14 03:05:06;;;;;;;108.25;52.38;;;19.20;99.90;;;;;;4998094;28;20065;-82
2021/07/14 03:07:31;;;;;;;101.05;56.20;;;19.20;99.90;;;;;;4979762;28;20508;-83
2021/07/14 03:09:57;;;;;;;102.70;51.67;;;19.10;99.90;;;;;;5009733;28;20042;-82
2021/07/14 03:12:24;;;;;;;93.88;50.60;;;19.10;99.90;;;;;;4992175;28;20022;-82
2021/07/14 03:15:01;;;;;;;111.82;50.38;;;19.10;99.90;;;;;;4979209;28;20121;-83
2021/07/14 03:17:30;;;;;;;135.93;56.90;;;19.10;99.90;;;;;;4987269;28;20045;-83
2021/07/14 03:19:57;;;;;;;201.70;54.00;;;19.00;99.90;;;;;;4993988;28;20539;-82
2021/07/14 03:22:22;;;;;;;102.47;49.55;;;19.00;99.90;;;;;;5006883;28;20052;-82
2021/07/14 03:24:48;;;;;;;112.53;48.85;;;19.00;99.90;;;;;;4997617;28;20112;-82
2021/07/14 03:27:13;;;;;;;116.65;47.75;;;19.00;99.90;;;;;;4994082;28;20124;-82
2021/07/14 03:29:39;;;;;;;135.07;51.65;;;19.00;99.90;;;;;;4974095;28;20034;-82
2021/07/14 03:32:05;;;;;;;111.28;46.63;;;18.80;99.90;;;;;;4990604;28;20406;-82
2021/07/14 03:34:32;;;;;;;138.80;50.65;;;18.80;99.90;;;;;;4976979;28;20038;-82
2021/07/14 03:36:57;;;;;;;165.10;53.58;;;18.90;99.90;;;;;;4979591;28;20505;-83
2021/07/14 03:39:23;;;;;;;129.50;47.80;;;18.80;99.90;;;;;;4993079;28;20037;-83
2021/07/14 03:41:49;;;;;;;103.70;50.95;;;18.80;99.90;;;;;;4991432;28;20106;-83
2021/07/14 03:44:15;;;;;;;127.28;56.90;;;18.80;99.90;;;;;;4996236;28;20034;-82
2021/07/14 03:46:40;;;;;;;97.72;47.08;;;18.80;99.90;;;;;;4975012;28;20410;-82
2021/07/14 03:49:06;;;;;;;110.68;46.58;;;18.80;99.90;;;;;;4975882;28;20038;-82
2021/07/14 03:51:31;;;;;;;102.65;51.83;;;18.80;99.90;;;;;;5009274;28;20459;-82
2021/07/14 03:53:57;;;;;;;87.45;45.67;;;18.90;99.90;;;;;;4997540;28;20030;-82
2021/07/14 03:56:25;;;;;;;86.53;44.08;;;18.90;99.90;;;;;;4984205;28;20037;-82
2021/07/14 03:58:55;;;;;;;88.28;45.20;;;19.00;99.90;;;;;;4969924;28;20118;-81
2021/07/14 04:01:21;;;;;;;90.40;44.97;;;18.90;99.90;;;;;;4987606;28;20030;-81
2021/07/14 04:03:47;;;;;;;87.05;45.58;;;18.90;99.90;;;;;;5004741;28;20022;-81
2021/07/14 04:06:13;;;;;;;90.18;45.55;;;18.90;99.90;;;;;;4985865;28;20033;-82
2021/07/14 04:08:49;;;;;;;101.15;47.53;;;19.00;99.90;;;;;;5004726;28;20025;-82
2021/07/14 04:11:15;;;;;;;86.30;46.65;;;19.00;99.90;;;;;;4995818;28;20030;-82
2021/07/14 04:13:41;;;;;;;75.65;42.33;;;19.00;99.90;;;;;;5015569;28;20026;-82
2021/07/14 04:16:07;;;;;;;84.80;45.22;;;19.00;99.90;;;;;;4984296;28;20443;-81
2021/07/14 04:18:32;;;;;;;95.78;50.30;;;19.00;99.90;;;;;;4990051;28;20025;-82
2021/07/14 04:20:58;;;;;;;93.25;45.70;;;19.00;99.90;;;;;;5007253;28;20046;-82
2021/07/14 04:23:23;;;;;;;88.57;46.63;;;19.00;99.90;;;;;;4970261;28;20043;-82
2021/07/14 04:25:49;;;;;;;98.07;45.83;;;19.00;99.90;;;;;;4995613;28;20664;-82
2021/07/14 04:28:14;;;;;;;118.47;56.63;;;19.00;99.90;;;;;;4997596;28;20072;-82
2021/07/14 04:30:40;;;;;;;88.10;46.38;;;19.00;99.90;;;;;;4991469;28;20034;-81
2021/07/14 04:33:05;;;;;;;113.53;55.90;;;19.00;99.90;;;;;;5015973;28;20036;-82
2021/07/14 04:35:31;;;;;;;97.07;47.00;;;19.00;99.90;;;;;;5008962;28;20029;-81
2021/07/14 04:37:56;;;;;;;101.85;49.67;;;19.00;99.90;;;;;;4979061;28;20037;-81
2021/07/14 04:40:25;;;;;;;112.32;51.90;;;19.00;99.90;;;;;;5012339;28;20393;-80
2021/07/14 04:42:53;;;;;;;103.20;50.25;;;19.00;99.90;;;;;;4987437;28;20038;-81
2021/07/14 04:45:19;;;;;;;102.45;50.05;;;19.00;99.90;;;;;;4997870;28;20034;-80
2021/07/14 04:47:45;;;;;;;104.85;52.50;;;19.00;99.90;;;;;;4969262;28;20041;-80
2021/07/14 04:50:11;;;;;;;115.30;56.13;;;19.10;99.90;;;;;;4989716;28;20038;-81
2021/07/14 04:52:36;;;;;;;112.05;54.00;;;19.00;99.90;;;;;;4989766;28;20029;-80
2021/07/14 04:55:02;;;;;;;103.38;53.38;;;19.00;99.90;;;;;;4986271;28;20030;-80
2021/07/14 04:57:27;;;;;;;105.65;54.33;;;19.00;99.90;;;;;;5005103;28;20030;-80
2021/07/14 04:59:53;;;;;;;125.72;62.05;;;19.00;99.90;;;;;;4994128;28;20025;-80
2021/07/14 05:02:18;;;;;;;100.78;51.90;;;19.00;99.90;;;;;;4969796;28;20045;-80
2021/07/14 05:04:44;;;;;;;110.07;54.58;;;19.10;99.90;;;;;;4974215;28;20073;-80
2021/07/14 05:07:10;;;;;;;114.72;53.88;;;19.10;99.90;;;;;;4970026;28;20049;-80
2021/07/14 05:09:35;;;;;;;106.15;53.20;;;19.10;99.90;;;;;;4991906;28;20427;-80
2021/07/14 05:12:01;;;;;;;122.20;54.42;;;19.10;99.90;;;;;;4974664;28;20504;-80
2021/07/14 05:14:26;;;;;;;115.63;53.63;;;19.10;99.90;;;;;;4966253;28;20038;-79
2021/07/14 05:16:52;;;;;;;112.82;53.17;;;19.00;99.90;;;;;;5005006;28;20037;-81
2021/07/14 05:19:17;;;;;;;118.20;52.22;;;19.00;99.90;;;;;;4984253;28;20029;-81
2021/07/14 05:21:43;;;;;;;105.47;50.83;;;19.00;99.90;;;;;;4971670;28;20038;-81
2021/07/14 05:24:09;;;;;;;107.88;48.75;;;19.00;99.90;;;;;;4975461;28;20029;-81
2021/07/14 05:26:35;;;;;;;99.05;46.30;;;19.00;99.90;;;;;;4988712;28;20038;-82
2021/07/14 05:29:00;;;;;;;111.60;49.05;;;19.00;99.90;;;;;;4984202;28;20062;-82
2021/07/14 05:31:26;;;;;;;106.55;47.65;;;19.00;99.90;;;;;;4990212;28;20038;-82
2021/07/14 05:33:51;;;;;;;126.75;50.22;;;19.00;99.90;;;;;;4972951;28;20486;-82
2021/07/14 05:36:17;;;;;;;124.82;47.95;;;19.00;99.90;;;;;;5006705;28;20528;-82
2021/07/14 05:38:43;;;;;;;95.75;47.03;;;19.00;99.90;;;;;;5009625;28;20030;-82
2021/07/14 05:41:09;;;;;;;96.43;44.20;;;19.20;99.90;;;;;;4974182;28;20065;-82
2021/07/14 05:43:35;;;;;;;90.53;42.28;;;19.00;99.90;;;;;;4977206;28;20049;-82
2021/07/14 05:46:01;;;;;;;90.72;43.90;;;19.10;99.90;;;;;;4987698;28;20037;-82
2021/07/14 05:48:26;;;;;;;96.35;47.80;;;19.00;99.90;;;;;;4999454;28;20481;-82
2021/07/14 05:50:53;;;;;;;86.97;40.83;;;19.20;99.90;;;;;;4972713;28;20054;-82
2021/07/14 05:53:18;;;;;;;92.20;44.38;;;19.00;99.90;;;;;;4972371;28;20025;-82
2021/07/14 05:55:44;;;;;;;101.55;41.60;;;19.00;99.90;;;;;;4995670;28;20026;-81
2021/07/14 05:58:11;;;;;;;128.50;49.20;;;19.10;99.90;;;;;;4971213;28;20494;-82
2021/07/14 06:00:37;;;;;;;111.32;47.33;;;19.00;99.90;;;;;;4987308;28;20141;-82
2021/07/14 06:03:03;;;;;;;128.70;52.40;;;19.00;99.90;;;;;;4964220;28;20023;-82
2021/07/14 06:05:29;;;;;;;129.13;52.92;;;19.00;99.90;;;;;;4964647;28;20085;-81
2021/07/14 06:07:54;;;;;;;121.85;57.97;;;19.20;99.90;;;;;;4992079;28;20104;-83
2021/07/14 06:10:20;;;;;;;127.55;55.42;;;19.10;99.90;;;;;;4979757;28;20030;-82
2021/07/14 06:12:45;;;;;;;105.70;50.70;;;19.10;99.90;;;;;;4997561;28;20032;-81
2021/07/14 06:15:11;;;;;;;117.90;49.22;;;19.20;99.90;;;;;;4966634;28;20030;-82
2021/07/14 06:17:37;;;;;;;99.53;48.80;;;19.20;99.90;;;;;;4988990;28;20044;-81
2021/07/14 06:20:04;;;;;;;99.10;47.50;;;19.20;99.90;;;;;;4961765;28;20060;-82
2021/07/14 06:22:30;;;;;;;105.32;48.30;;;19.20;99.90;;;;;;4995199;28;20512;-83
2021/07/14 06:24:55;;;;;;;100.55;43.72;;;19.20;99.90;;;;;;4994302;28;20034;-83
2021/07/14 06:27:21;;;;;;;85.50;42.55;;;19.20;99.90;;;;;;4996499;28;20061;-82
2021/07/14 06:29:46;;;;;;;86.68;43.05;;;19.20;99.90;;;;;;4965987;28;20134;-80
2021/07/14 06:32:12;;;;;;;92.35;41.50;;;19.20;99.90;;;;;;4996489;28;20046;-83
2021/07/14 06:34:38;;;;;;;78.32;36.95;;;19.20;99.90;;;;;;5010528;28;20076;-81
2021/07/14 06:37:03;;;;;;;70.63;35.05;;;19.20;99.90;;;;;;5001249;28;20037;-82
2021/07/14 06:39:29;;;;;;;67.25;33.92;;;19.20;99.90;;;;;;5001205;28;20033;-82
2021/07/14 06:41:55;;;;;;;74.85;34.78;;;19.20;99.90;;;;;;4977652;28;20036;-82
2021/07/14 06:44:22;;;;;;;60.28;30.52;;;19.30;99.90;;;;;;4995752;28;20064;-82
2021/07/14 06:46:47;;;;;;;64.65;31.27;;;19.30;99.90;;;;;;4970635;28;20033;-82
2021/07/14 06:49:13;;;;;;;69.97;31.25;;;19.30;99.90;;;;;;5002391;28;20034;-82
2021/07/14 06:51:38;;;;;;;73.88;30.77;;;19.30;99.90;;;;;;5018333;28;20033;-83
2021/07/14 06:54:04;;;;;;;54.38;27.25;;;19.30;99.90;;;;;;4973163;28;20030;-82
2021/07/14 06:56:29;;;;;;;66.80;29.67;;;19.30;99.90;;;;;;4994375;28;20033;-82
2021/07/14 06:58:55;;;;;;;57.20;28.75;;;19.30;99.90;;;;;;4984759;28;20072;-82
2021/07/14 07:01:20;;;;;;;51.97;27.75;;;19.30;99.90;;;;;;5008546;28;20026;-82
2021/07/14 07:03:46;;;;;;;57.92;27.20;;;19.20;99.90;;;;;;4998713;28;20026;-82
2021/07/14 07:06:12;;;;;;;68.75;27.20;;;19.20;99.90;;;;;;4968413;28;20389;-82
2021/07/14 07:08:37;;;;;;;43.08;22.83;;;19.20;99.90;;;;;;4996447;28;20022;-81
2021/07/14 07:11:03;;;;;;;41.85;22.25;;;19.20;99.90;;;;;;4975480;28;20038;-83
2021/07/14 07:13:29;;;;;;;39.30;21.35;;;19.20;99.90;;;;;;4975978;28;20077;-81
2021/07/14 07:15:55;;;;;;;33.63;18.77;;;19.20;99.90;;;;;;4968442;28;20136;-81
2021/07/14 07:18:21;;;;;;;32.58;18.63;;;19.20;99.90;;;;;;4985199;28;20022;-82
2021/07/14 07:20:49;;;;;;;46.00;20.17;;;19.20;99.90;;;;;;4972030;28;20084;-82
2021/07/14 07:23:15;;;;;;;31.48;17.08;;;19.20;99.90;;;;;;4975210;28;20125;-83
2021/07/14 07:25:41;;;;;;;32.58;17.98;;;19.20;99.90;;;;;;4975706;28;20455;-82
2021/07/14 07:28:13;;;;;;;30.38;17.17;;;19.20;99.90;;;;;;4974713;28;20030;-82
2021/07/14 07:30:39;;;;;;;21.13;15.93;;;19.20;99.90;;;;;;4968375;28;20041;-82
2021/07/14 07:33:04;;;;;;;38.20;18.23;;;19.20;99.90;;;;;;5006297;28;20057;-82
2021/07/14 07:35:30;;;;;;;43.33;17.90;;;19.20;99.90;;;;;;4995257;28;20133;-82
2021/07/14 07:37:56;;;;;;;30.67;17.70;;;19.20;99.90;;;;;;4998835;28;20034;-81
2021/07/14 07:40:21;;;;;;;25.48;15.73;;;19.20;99.90;;;;;;5010953;28;20034;-82
2021/07/14 07:42:48;;;;;;;31.83;20.95;;;19.20;99.90;;;;;;4979817;28;20076;-82
2021/07/14 07:45:13;;;;;;;32.67;20.90;;;19.20;99.90;;;;;;4995443;28;20038;-83
2021/07/14 07:47:42;;;;;;;30.88;21.10;;;19.20;99.90;;;;;;4990630;28;20030;-83
2021/07/14 07:50:08;;;;;;;36.58;24.42;;;19.20;99.90;;;;;;4970564;28;20541;-83
2021/07/14 07:52:33;;;;;;;31.75;24.13;;;19.30;99.90;;;;;;5007193;28;20784;-83
2021/07/14 07:55:00;;;;;;;39.40;22.48;;;19.30;99.90;;;;;;4964975;28;20073;-83
2021/07/14 07:57:27;;;;;;;35.70;24.13;;;19.30;99.90;;;;;;4992615;28;20560;-83
2021/07/14 07:59:52;;;;;;;38.40;25.88;;;19.20;99.90;;;;;;4992054;28;20033;-83
2021/07/14 08:02:18;;;;;;;39.72;26.52;;;19.30;99.90;;;;;;4971073;28;20530;-83
2021/07/14 08:04:43;;;;;;;43.25;27.52;;;19.30;99.90;;;;;;5011344;28;20080;-83
2021/07/14 08:07:09;;;;;;;43.80;25.98;;;19.30;99.90;;;;;;4966048;28;20093;-83
2021/07/14 08:09:35;;;;;;;43.30;26.48;;;19.30;99.90;;;;;;4989542;28;20067;-82
2021/07/14 08:12:01;;;;;;;33.72;24.73;;;19.30;99.90;;;;;;4983242;28;20033;-83
2021/07/14 08:14:27;;;;;;;33.00;24.88;;;19.40;99.90;;;;;;4975576;28;20034;-83
2021/07/14 08:16:52;;;;;;;34.67;22.63;;;19.30;99.90;;;;;;4993663;28;20117;-83
2021/07/14 08:19:18;;;;;;;26.83;20.20;;;19.30;99.90;;;;;;4969504;28;20031;-83
2021/07/14 08:21:43;;;;;;;30.77;20.75;;;19.40;99.90;;;;;;4972270;28;20045;-83
2021/07/14 08:24:09;;;;;;;28.10;17.92;;;19.40;99.90;;;;;;5016620;28;20041;-82
2021/07/14 08:26:34;;;;;;;28.27;17.75;;;19.30;99.90;;;;;;5004341;28;20034;-84
2021/07/14 08:29:00;;;;;;;24.30;17.08;;;19.30;99.90;;;;;;4997283;28;20071;-83
2021/07/14 08:31:26;;;;;;;30.50;17.88;;;19.40;99.90;;;;;;4974639;28;20040;-83
2021/07/14 08:33:51;;;;;;;34.42;19.05;;;19.40;99.90;;;;;;4966735;28;20026;-83
2021/07/14 08:36:17;;;;;;;33.08;20.10;;;19.40;99.90;;;;;;4973221;28;20097;-82
2021/07/14 08:38:42;;;;;;;40.40;23.30;;;19.40;99.90;;;;;;4969327;28;20124;-82
2021/07/14 08:41:09;;;;;;;40.78;25.05;;;19.40;99.90;;;;;;4998460;28;20029;-82
2021/07/14 08:43:35;;;;;;;45.63;27.60;;;19.50;99.90;;;;;;4992390;28;20033;-82
2021/07/14 08:46:00;;;;;;;47.83;27.65;;;19.50;99.90;;;;;;4974490;28;20038;-83
2021/07/14 08:48:26;;;;;;;56.55;27.92;;;19.50;99.90;;;;;;4969276;28;20675;-82
2021/07/14 08:50:57;;;;;;;54.85;29.45;;;19.40;99.90;;;;;;4976755;28;20045;-82
2021/07/14 08:53:22;;;;;;;72.32;34.38;;;19.50;99.90;;;;;;4978826;28;20026;-82
2021/07/14 08:55:48;;;;;;;71.82;32.28;;;19.50;99.90;;;;;;4986274;28;20056;-82
2021/07/14 08:58:14;;;;;;;55.20;29.85;;;19.50;99.90;;;;;;4973018;28;20442;-83
2021/07/14 09:00:40;;;;;;;62.58;28.92;;;19.50;99.90;;;;;;5002316;28;20030;-82
2021/07/14 09:03:06;;;;;;;59.83;32.10;;;19.50;99.90;;;;;;4973221;28;20022;-82
2021/07/14 09:05:31;;;;;;;65.03;32.20;;;19.50;99.90;;;;;;4999887;28;20083;-79
2021/07/14 09:07:57;;;;;;;58.35;30.58;;;19.50;99.90;;;;;;4982217;28;20046;-83
2021/07/14 09:10:22;;;;;;;56.67;31.92;;;19.50;99.90;;;;;;4969706;28;20034;-82
2021/07/14 09:12:49;;;;;;;63.38;30.83;;;19.50;99.90;;;;;;4963214;28;20592;-82
2021/07/14 09:15:17;;;;;;;63.55;34.13;;;19.50;99.90;;;;;;4976120;28;20030;-83
2021/07/14 09:18:03;;;;;;;63.75;33.15;;;19.50;99.90;;;;;;4970070;28;20500;-82
2021/07/14 09:20:30;;;;;;;62.67;31.73;;;19.60;99.90;;;;;;4995797;28;20466;-83
2021/07/14 09:23:12;;;;;;;69.40;32.63;;;19.60;99.90;;;;;;4964766;28;20109;-82
2021/07/14 09:25:43;;;;;;;55.50;29.45;;;19.60;99.90;;;;;;4989981;28;20473;-82
2021/07/14 09:28:09;;;;;;;60.75;32.95;;;19.50;99.90;;;;;;4974456;28;20527;-83
2021/07/14 09:30:36;;;;;;;79.93;35.63;;;19.50;99.90;;;;;;4965769;28;20061;-82
2021/07/14 09:33:06;;;;;;;85.85;37.65;;;19.60;99.90;;;;;;4991349;28;20404;-82
2021/07/14 09:35:41;;;;;;;78.25;37.33;;;19.60;99.90;;;;;;4988368;28;20038;-82
2021/07/14 09:38:17;;;;;;;78.72;35.85;;;19.60;99.90;;;;;;4983709;28;20124;-83
2021/07/14 09:40:43;;;;;;;;;;;19.60;99.90;;;;;;4988701;28;20027;-83
2021/07/14 09:43:15;;;;;;;;;;;19.60;99.90;;;;;;4997874;28;19909;-82
2021/07/14 09:45:46;;;;;;;78.35;36.85;;;19.60;99.90;;;;;;5007696;28;19913;-82
2021/07/14 09:48:17;;;;;;;71.68;37.65;;;19.60;99.90;;;;;;4970405;28;20121;-82
2021/07/14 09:50:49;;;;;;;81.72;39.80;;;19.70;99.90;;;;;;4975155;28;20034;-82
2021/07/14 09:53:19;;;;;;;73.57;36.13;;;19.70;99.90;;;;;;4973729;28;20048;-82
2021/07/14 09:55:44;;;;;;;79.78;35.83;;;19.70;99.90;;;;;;4979569;28;20034;-82
2021/07/14 09:58:21;;;;;;;82.70;37.65;;;19.70;99.90;;;;;;4982242;28;20379;-82
2021/07/14 10:00:48;;;;;;;79.72;36.78;;;19.80;99.90;;;;;;4990576;28;20508;-82
2021/07/14 10:03:33;;;;;;;77.75;37.97;;;19.80;99.90;;;;;;4969034;28;20034;-82
2021/07/14 10:06:01;;;;;;;76.15;38.75;;;19.90;99.90;;;;;;5002878;28;20033;-82
2021/07/14 10:08:27;;;;;;;71.95;38.05;;;19.80;99.90;;;;;;4970255;28;20038;-82
2021/07/14 10:11:06;;;;;;;77.30;35.97;;;19.80;99.90;;;;;;4969249;28;20038;-82
2021/07/14 10:13:32;;;;;;;77.63;34.03;;;19.80;99.90;;;;;;4965920;28;20057;-81
2021/07/14 10:16:04;;;;;;;75.85;33.70;;;19.90;99.90;;;;;;4987179;28;20397;-82
2021/07/14 10:18:31;;;;;;;81.60;36.63;;;19.90;99.90;;;;;;4974053;28;20117;-82
2021/07/14 10:20:56;;;;;;;77.57;38.38;;;19.90;99.90;;;;;;4990237;28;20052;-82
2021/07/14 10:23:22;;;;;;;74.72;35.42;;;19.90;99.90;;;;;;4974356;28;20080;-82
2021/07/14 10:25:48;;;;;;;67.43;35.00;;;19.90;99.90;;;;;;4987980;28;20033;-82
2021/07/14 10:28:16;;;;;;;68.97;36.13;;;19.90;99.90;;;;;;4978904;28;20057;-82
2021/07/14 10:30:42;;;;;;;70.35;35.80;;;19.90;99.90;;;;;;4988620;28;20097;-82
2021/07/14 10:33:11;;;;;;;82.53;40.78;;;19.80;99.90;;;;;;4981293;28;20440;-83
2021/07/14 10:35:41;;;;;;;96.63;43.15;;;19.80;99.90;;;;;;5007587;28;20761;-82
2021/07/14 10:38:16;;;;;;;106.07;49.60;;;19.80;99.90;;;;;;5009453;28;20030;-82
2021/07/14 10:40:44;;;;;;;102.90;45.47;;;19.90;99.90;;;;;;4990074;28;20389;-83
2021/07/14 10:43:18;;;;;;;103.75;45.47;;;19.80;99.90;;;;;;4990808;28;20551;-83
2021/07/14 10:45:48;;;;;;;91.45;45.72;;;19.90;99.90;;;;;;4979808;28;20081;-83
2021/07/14 10:48:19;;;;;;;97.55;46.95;;;19.90;99.90;;;;;;4973044;28;20026;-83
2021/07/14 10:50:47;;;;;;;93.63;46.25;;;19.90;99.90;;;;;;4968847;28;20084;-83
2021/07/14 10:53:13;;;;;;;96.13;48.28;;;19.90;99.90;;;;;;4973671;28;20101;-82
2021/07/14 10:55:38;;;;;;;95.22;48.55;;;19.90;99.90;;;;;;4989646;28;20029;-83
2021/07/14 10:58:04;;;;;;;105.82;53.15;;;19.90;99.90;;;;;;4972030;28;20026;-82
2021/07/14 11:00:40;;;;;;;113.18;52.83;;;19.90;99.90;;;;;;4999084;28;20060;-82
2021/07/14 11:03:05;;;;;;;122.82;55.00;;;19.90;99.90;;;;;;4984051;28;20034;-82
2021/07/14 11:05:51;;;;;;;100.65;53.55;;;19.90;99.90;;;;;;4998224;28;20026;-83
2021/07/14 11:08:47;;;;;;;100.78;50.38;;;19.80;99.90;;;;;;4986646;28;20034;-83
2021/07/14 11:11:17;;;;;;;86.37;42.33;;;19.90;99.90;;;;;;4996844;28;20042;-83
2021/07/14 11:13:44;;;;;;;88.43;41.95;;;19.80;99.90;;;;;;4993181;28;20566;-83
2021/07/14 11:16:32;;;;;;;89.85;44.13;;;19.90;99.90;;;;;;4967943;28;21147;-82
2021/07/14 11:19:10;;;;;;;89.78;41.47;;;19.90;99.90;;;;;;4993286;28;20031;-82
2021/07/14 11:22:02;;;;;;;93.20;43.35;;;19.80;99.90;;;;;;4997445;28;20037;-83
2021/07/14 11:24:37;;;;;;;84.03;42.78;;;19.80;99.90;;;;;;4982482;28;20432;-83
2021/07/14 11:27:26;;;;;;;84.95;44.08;;;19.80;99.90;;;;;;5004765;28;20025;-82
2021/07/14 11:30:04;;;;;;;90.93;43.78;;;19.80;99.90;;;;;;4993542;28;20116;-82
2021/07/14 11:35:07;;;;;;;84.82;42.53;;;19.90;99.90;;;;;;5005527;28;20370;-83
2021/07/14 11:37:34;;;;;;;82.15;43.78;;;19.90;99.90;;;;;;5002163;28;20034;-82
2021/07/14 11:40:17;;;;;;;78.72;41.50;;;19.90;99.90;;;;;;5006432;28;20349;-83
2021/07/14 11:42:59;;;;;;;86.78;44.58;;;20.00;99.90;;;;;;5006542;28;20026;-82
2021/07/14 11:45:34;;;;;;;83.85;45.35;;;19.90;99.90;;;;;;4986724;28;20088;-82
2021/07/14 11:48:12;;;;;;;88.05;50.67;;;19.90;99.90;;;;;;5017552;28;20034;-82
2021/07/14 11:50:48;;;;;;;92.35;47.83;;;19.90;99.90;;;;;;4994949;28;20552;-83
2021/07/14 11:53:32;;;;;;;90.05;49.25;;;20.00;99.90;;;;;;5008496;28;20026;-82
2021/07/14 11:56:20;;;;;;;92.50;51.55;;;19.90;99.90;;;;;;5014479;28;20109;-83
2021/07/14 11:59:08;;;;;;;93.72;52.20;;;19.90;99.90;;;;;;5009327;28;20493;-83
2021/07/14 12:01:34;;;;;;;91.53;48.00;;;19.90;99.90;;;;;;4975184;28;20030;-83
2021/07/14 12:03:59;;;;;;;85.13;46.97;;;19.90;99.90;;;;;;5013150;28;20088;-83
2021/07/14 12:06:34;;;;;;;92.63;48.33;;;19.90;99.90;;;;;;5012637;28;20045;-83
2021/07/14 12:09:20;;;;;;;91.40;47.80;;;19.90;99.90;;;;;;5009856;28;20475;-83
2021/07/14 12:11:51;;;;;;;91.30;50.15;;;19.90;99.90;;;;;;5008026;28;20026;-83
2021/07/14 12:14:25;;;;;;;96.72;50.45;;;20.00;99.90;;;;;;5008499;28;20470;-83
2021/07/14 12:17:04;;;;;;;99.47;55.05;;;20.10;99.90;;;;;;4995343;28;20030;-82
2021/07/14 12:19:37;;;;;;;92.75;51.70;;;20.20;99.90;;;;;;4996275;28;20602;-83
2021/07/14 12:22:04;;;;;;;101.78;55.50;;;20.20;99.90;;;;;;4992971;28;20019;-83
2021/07/14 12:24:31;;;;;;;99.07;55.17;;;20.30;99.90;;;;;;4990111;28;20050;-83
2021/07/14 12:27:20;;;;;;;96.18;54.20;;;20.40;99.90;;;;;;5007940;28;20052;-83
2021/07/14 12:30:01;;;;;;;90.85;50.28;;;20.60;99.90;;;;;;4995424;28;20034;-82
2021/07/14 12:32:30;;;;;;;78.40;45.90;;;20.60;99.90;;;;;;4976416;28;20035;-83
2021/07/14 12:34:56;;;;;;;84.82;51.78;;;20.60;99.90;;;;;;5007114;28;20040;-83
2021/07/14 12:37:21;;;;;;;86.07;49.45;;;20.70;99.90;;;;;;5006071;28;20469;-83
2021/07/14 12:39:47;;;;;;;101.45;54.60;;;20.70;99.90;;;;;;5009687;28;20459;-83
2021/07/14 12:42:12;;;;;;;78.13;48.33;;;20.80;99.90;;;;;;5009083;28;20087;-82
2021/07/14 12:44:38;;;;;;;86.43;51.20;;;20.80;99.90;;;;;;4988268;28;20485;-82